Time;durP1;ratioP1;P1;durP2;ratioP2;P2;SDS_P1;SDS_P2;PMS_P1;PMS_P2;Temp;Humidity;BMP_temperature;BMP_pressure;BME280_temperature;BME280_humidity;BME280_pressure;Samples;Min_cycle;Max_cycle;Signal;HPM_P1;HPM_P2
2021/07/18 00:02:00;;;;;;;0.13;0.13;;;23.40;81.50;;;;;;4194030;28;20055;-52
2021/07/18 00:04:22;;;;;;;0.00;0.00;;;23.40;81.50;;;;;;4193950;28;20055;-51
2021/07/18 00:06:45;;;;;;;0.00;0.00;;;23.30;81.40;;;;;;4199383;28;20463;-50
2021/07/18 00:09:09;;;;;;;0.00;0.00;;;23.40;82.50;;;;;;4209401;28;20047;-51
2021/07/18 00:11:31;;;;;;;0.00;0.00;;;23.40;81.50;;;;;;4209803;28;20051;-48
2021/07/18 00:13:53;;;;;;;0.00;0.00;;;23.30;81.50;;;;;;4209855;28;20063;-51
2021/07/18 00:16:16;;;;;;;0.00;0.00;;;23.30;81.50;;;;;;4210315;28;20051;-49
2021/07/18 00:18:38;;;;;;;0.00;0.00;;;23.30;81.50;;;;;;4209907;28;20048;-50
2021/07/18 00:21:00;;;;;;;0.00;0.00;;;23.30;81.50;;;;;;4210443;28;20410;-53
2021/07/18 00:23:23;;;;;;;0.52;0.52;;;23.30;81.60;;;;;;4210180;28;20048;-48
2021/07/18 00:25:46;;;;;;;2.72;1.08;;;23.30;81.60;;;;;;4209885;28;20056;-49
2021/07/18 00:28:08;;;;;;;0.00;0.00;;;23.30;81.60;;;;;;4209986;28;20050;-54
2021/07/18 00:30:30;;;;;;;0.10;0.10;;;23.30;81.70;;;;;;4208641;28;20062;-51
2021/07/18 00:32:52;;;;;;;0.10;0.10;;;23.30;81.70;;;;;;4209139;28;20166;-49
2021/07/18 00:35:14;;;;;;;0.00;0.00;;;23.30;81.80;;;;;;4208700;28;20059;-54
2021/07/18 00:37:37;;;;;;;0.00;0.00;;;23.30;81.80;;;;;;4208797;28;20048;-53
2021/07/18 00:39:59;;;;;;;0.38;0.38;;;23.30;81.80;;;;;;4209164;28;20132;-54
2021/07/18 00:42:23;;;;;;;0.00;0.00;;;23.20;81.80;;;;;;4209128;28;20517;-49
2021/07/18 00:44:45;;;;;;;0.17;0.17;;;23.30;81.80;;;;;;4208983;28;20557;-52
2021/07/18 00:47:07;;;;;;;0.00;0.00;;;23.30;81.80;;;;;;4208868;28;20551;-53
2021/07/18 00:49:29;;;;;;;0.00;0.00;;;23.20;81.80;;;;;;4207527;28;20048;-52
2021/07/18 00:51:51;;;;;;;0.00;0.00;;;23.20;81.80;;;;;;4209121;28;20579;-51
2021/07/18 00:54:14;;;;;;;0.10;0.10;;;23.20;81.80;;;;;;4208824;28;20051;-48
2021/07/18 00:56:36;;;;;;;0.00;0.00;;;23.20;81.80;;;;;;4208909;28;20048;-52
2021/07/18 00:59:01;;;;;;;0.00;0.00;;;23.20;81.90;;;;;;4208532;28;20410;-52
2021/07/18 01:01:23;;;;;;;0.08;0.08;;;23.20;81.90;;;;;;4191935;28;20078;-51
2021/07/18 01:03:45;;;;;;;0.55;0.55;;;23.20;81.90;;;;;;4192056;28;20052;-51
2021/07/18 01:06:07;;;;;;;0.10;0.10;;;23.20;81.90;;;;;;4199078;28;20059;-50
2021/07/18 01:08:29;;;;;;;1.30;0.57;;;23.20;81.90;;;;;;4208690;28;20066;-49
2021/07/18 01:10:51;;;;;;;0.00;0.00;;;23.20;81.90;;;;;;4208558;28;20097;-52
2021/07/18 01:13:13;;;;;;;0.00;0.00;;;23.20;81.90;;;;;;4200174;28;20467;-48
2021/07/18 01:15:37;;;;;;;0.00;0.00;;;23.20;81.90;;;;;;4208356;27;20573;-51
2021/07/18 01:18:00;;;;;;;0.10;0.10;;;23.20;82.00;;;;;;4208486;27;20054;-50
2021/07/18 01:20:23;;;;;;;0.00;0.00;;;23.10;81.90;;;;;;4208604;28;20418;-51
2021/07/18 01:22:47;;;;;;;0.00;0.00;;;23.10;81.90;;;;;;4191890;28;20514;-53
2021/07/18 01:25:12;;;;;;;1.63;0.25;;;23.10;81.90;;;;;;4189987;28;20510;-52
2021/07/18 01:27:34;;;;;;;0.00;0.00;;;23.10;81.90;;;;;;4191454;28;20045;-49
2021/07/18 01:29:58;;;;;;;0.00;0.00;;;23.10;82.00;;;;;;4147833;28;1245958;-52
2021/07/18 01:32:20;;;;;;;0.08;0.08;;;23.10;82.00;;;;;;4192038;28;20507;-53
2021/07/18 01:34:42;;;;;;;0.20;0.20;;;23.10;82.10;;;;;;4191915;28;20048;-51
2021/07/18 01:37:05;;;;;;;0.20;0.20;;;23.10;82.10;;;;;;4192389;28;20044;-53
2021/07/18 01:39:28;;;;;;;0.00;0.00;;;23.10;82.10;;;;;;4191788;28;20129;-52
2021/07/18 01:41:52;;;;;;;0.20;0.20;;;23.00;82.00;;;;;;4208350;28;20468;-54
2021/07/18 01:44:14;;;;;;;0.10;0.10;;;23.10;82.10;;;;;;4192278;28;20819;-53
2021/07/18 01:46:37;;;;;;;0.00;0.00;;;23.00;82.10;;;;;;4206380;28;20072;-49
2021/07/18 01:49:00;;;;;;;0.00;0.00;;;23.00;82.10;;;;;;4208827;28;20547;-53
2021/07/18 01:51:22;;;;;;;0.00;0.00;;;23.00;82.20;;;;;;4209167;28;20044;-51
2021/07/18 01:53:44;;;;;;;0.00;0.00;;;23.00;83.20;;;;;;4208407;28;20058;-52
2021/07/18 01:56:08;;;;;;;0.00;0.00;;;23.00;82.30;;;;;;4208631;28;20138;-52
2021/07/18 01:58:30;;;;;;;1.35;0.95;;;23.00;82.30;;;;;;4208536;28;20056;-52
2021/07/18 02:00:52;;;;;;;0.00;0.00;;;23.00;82.30;;;;;;4208626;28;20456;-53
2021/07/18 02:03:14;;;;;;;0.03;0.03;;;23.00;82.30;;;;;;4208552;28;20070;-52
2021/07/18 02:05:36;;;;;;;0.10;0.10;;;22.90;82.20;;;;;;4208075;28;20508;-50
2021/07/18 02:07:58;;;;;;;0.32;0.30;;;23.00;82.40;;;;;;4208809;28;20052;-52
2021/07/18 02:10:21;;;;;;;0.00;0.00;;;23.00;82.30;;;;;;4208311;28;20050;-51
2021/07/18 02:12:45;;;;;;;0.17;0.17;;;23.00;82.40;;;;;;4208412;28;20056;-49
2021/07/18 02:15:09;;;;;;;0.08;0.08;;;23.00;82.50;;;;;;4207921;28;20048;-51
2021/07/18 02:17:32;;;;;;;0.00;0.00;;;22.90;82.50;;;;;;4207941;28;20522;-50
2021/07/18 02:19:54;;;;;;;1.00;1.00;;;22.90;83.40;;;;;;4191301;28;20123;-49
2021/07/18 02:22:24;;;;;;;0.03;0.03;;;22.90;82.50;;;;;;4191775;28;20053;-53
2021/07/18 02:24:46;;;;;;;0.00;0.00;;;22.90;82.50;;;;;;4191695;28;20052;-53
2021/07/18 02:27:09;;;;;;;0.00;0.00;;;22.90;82.50;;;;;;4192614;28;20068;-51
2021/07/18 02:29:33;;;;;;;0.00;0.00;;;22.90;82.50;;;;;;4208380;28;20063;-53
2021/07/18 02:31:55;;;;;;;0.00;0.00;;;22.90;82.60;;;;;;4208305;28;20048;-52
2021/07/18 02:34:17;;;;;;;0.10;0.10;;;22.90;82.70;;;;;;4208116;28;20160;-53
2021/07/18 02:36:39;;;;;;;0.10;0.10;;;22.90;82.60;;;;;;4207915;28;20483;-53
2021/07/18 02:39:02;;;;;;;0.00;0.00;;;22.90;82.60;;;;;;4207863;28;20105;-52
2021/07/18 02:41:23;;;;;;;0.00;0.00;;;22.90;82.60;;;;;;4208032;28;20139;-52
2021/07/18 02:43:46;;;;;;;0.00;0.00;;;22.90;82.60;;;;;;4207972;28;20059;-53
2021/07/18 02:46:09;;;;;;;0.00;0.00;;;22.90;82.60;;;;;;4190979;28;20132;-54
2021/07/18 02:48:31;;;;;;;0.00;0.00;;;22.90;82.70;;;;;;4184564;28;20052;-49
2021/07/18 02:50:54;;;;;;;0.28;0.28;;;22.90;83.50;;;;;;4191292;28;20053;-50
2021/07/18 02:53:16;;;;;;;0.00;0.00;;;22.80;82.60;;;;;;4207323;28;20771;-50
2021/07/18 02:55:38;;;;;;;0.00;0.00;;;22.90;82.60;;;;;;4207744;28;20064;-53
2021/07/18 02:58:00;;;;;;;0.00;0.00;;;22.80;82.60;;;;;;4207890;28;20048;-51
2021/07/18 03:00:25;;;;;;;0.10;0.10;;;22.80;82.60;;;;;;4207838;28;20055;-52
2021/07/18 03:02:48;;;;;;;0.00;0.00;;;22.80;82.60;;;;;;4207880;28;20090;-55
2021/07/18 03:05:11;;;;;;;0.00;0.00;;;22.80;82.60;;;;;;4207715;28;20048;-49
2021/07/18 03:07:33;;;;;;;0.28;0.28;;;22.80;82.60;;;;;;4207573;28;20059;-50
2021/07/18 03:09:56;;;;;;;0.10;0.10;;;22.80;82.60;;;;;;4207658;28;20413;-48
2021/07/18 03:12:18;;;;;;;0.00;0.00;;;22.80;82.70;;;;;;4207444;28;20452;-49
2021/07/18 03:14:40;;;;;;;0.00;0.00;;;22.80;82.70;;;;;;4207762;28;20130;-51
2021/07/18 03:17:02;;;;;;;0.00;0.00;;;22.80;82.70;;;;;;4207715;28;20048;-49
2021/07/18 03:19:26;;;;;;;0.17;0.17;;;22.80;82.70;;;;;;4207748;28;20047;-52
2021/07/18 03:21:48;;;;;;;0.00;0.00;;;22.80;82.70;;;;;;4206815;28;20040;-50
2021/07/18 03:24:10;;;;;;;1.08;0.20;;;22.80;82.70;;;;;;4207490;28;20051;-51
2021/07/18 03:26:32;;;;;;;0.00;0.00;;;22.80;82.80;;;;;;4207080;28;20497;-48
2021/07/18 03:28:54;;;;;;;0.00;0.00;;;22.80;82.80;;;;;;4190671;28;20506;-54
2021/07/18 03:31:16;;;;;;;2.47;0.90;;;22.80;82.80;;;;;;4190335;28;20436;-51
2021/07/18 03:33:39;;;;;;;0.00;0.00;;;22.80;82.80;;;;;;4190818;28;20669;-53
2021/07/18 03:36:02;;;;;;;0.30;0.30;;;22.80;82.90;;;;;;4190591;28;20132;-48
2021/07/18 03:38:24;;;;;;;0.10;0.10;;;22.80;82.80;;;;;;4190801;28;20059;-53
2021/07/18 03:40:46;;;;;;;0.05;0.05;;;22.80;82.90;;;;;;4190575;28;20499;-52
2021/07/18 03:43:08;;;;;;;0.00;0.00;;;22.70;82.80;;;;;;4202179;28;20575;-53
2021/07/18 03:45:30;;;;;;;0.00;0.00;;;22.80;82.90;;;;;;4207139;28;20410;-49
2021/07/18 03:47:52;;;;;;;0.10;0.10;;;22.70;82.80;;;;;;4207061;28;20679;-50
2021/07/18 03:50:15;;;;;;;0.00;0.00;;;22.70;83.70;;;;;;4207311;28;20058;-51
2021/07/18 03:52:38;;;;;;;1.55;0.55;;;22.70;82.80;;;;;;4207582;28;20077;-49
2021/07/18 03:55:04;;;;;;;0.00;0.00;;;22.80;82.90;;;;;;4207480;28;20048;-53
2021/07/18 03:57:26;;;;;;;0.00;0.00;;;22.70;83.00;;;;;;4206860;28;20040;-53
2021/07/18 03:59:48;;;;;;;0.00;0.00;;;22.80;82.90;;;;;;4207506;28;20056;-49
2021/07/18 04:02:10;;;;;;;0.00;0.00;;;22.70;82.90;;;;;;4207610;28;20055;-49
2021/07/18 04:04:34;;;;;;;0.00;0.00;;;22.70;82.90;;;;;;4208154;28;20048;-52
2021/07/18 04:06:56;;;;;;;0.00;0.00;;;22.70;83.80;;;;;;4209195;28;20052;-50
2021/07/18 04:09:19;;;;;;;0.13;0.13;;;22.70;83.80;;;;;;4210054;28;20063;-51
2021/07/18 04:11:41;;;;;;;0.00;0.00;;;22.70;82.90;;;;;;4210056;28;20052;-50
2021/07/18 04:14:03;;;;;;;0.00;0.00;;;22.70;82.90;;;;;;4193600;28;20048;-49
2021/07/18 04:16:25;;;;;;;0.00;0.00;;;22.70;83.00;;;;;;4193257;28;20052;-51
2021/07/18 04:18:48;;;;;;;0.73;0.73;;;22.70;83.00;;;;;;4193491;28;20067;-49
2021/07/18 04:21:10;;;;;;;0.00;0.00;;;22.70;82.90;;;;;;4193311;28;20068;-53
2021/07/18 04:23:32;;;;;;;0.10;0.10;;;22.70;82.90;;;;;;4206034;28;20066;-50
2021/07/18 04:25:56;;;;;;;0.45;0.45;;;22.70;82.90;;;;;;4210585;28;20055;-50
2021/07/18 04:28:18;;;;;;;0.45;0.45;;;22.70;82.90;;;;;;4209899;28;20052;-52
2021/07/18 04:30:41;;;;;;;0.00;0.00;;;22.70;82.80;;;;;;4210089;28;20079;-52
2021/07/18 04:33:03;;;;;;;0.00;0.00;;;22.70;82.80;;;;;;4210154;27;20082;-51
2021/07/18 04:35:25;;;;;;;0.00;0.00;;;22.70;82.80;;;;;;4209477;28;20487;-53
2021/07/18 04:37:47;;;;;;;0.10;0.10;;;22.70;82.80;;;;;;4209479;27;20052;-51
2021/07/18 04:40:12;;;;;;;0.40;0.40;;;22.70;82.80;;;;;;4209880;28;20573;-51
2021/07/18 04:42:35;;;;;;;0.17;0.17;;;22.70;82.80;;;;;;4209982;28;20109;-49
2021/07/18 04:44:57;;;;;;;0.00;0.00;;;22.70;82.70;;;;;;4209598;28;20154;-55
2021/07/18 04:47:23;;;;;;;0.00;0.00;;;22.70;82.60;;;;;;4209947;28;20414;-50
2021/07/18 04:49:45;;;;;;;0.00;0.00;;;22.70;82.60;;;;;;4209720;28;20501;-52
2021/07/18 04:52:08;;;;;;;0.65;0.65;;;22.70;82.60;;;;;;4209958;28;20063;-47
2021/07/18 04:54:30;;;;;;;0.00;0.00;;;22.80;82.70;;;;;;4207951;28;20414;-51
2021/07/18 04:56:52;;;;;;;0.20;0.20;;;22.80;83.30;;;;;;4209577;28;20055;-51
2021/07/18 04:59:15;;;;;;;0.05;0.05;;;22.80;83.20;;;;;;4209329;28;20101;-47
2021/07/18 05:01:37;;;;;;;0.00;0.00;;;22.80;83.10;;;;;;4209295;28;20138;-46
2021/07/18 05:03:59;;;;;;;0.00;0.00;;;22.80;82.90;;;;;;4209072;28;20074;-47
2021/07/18 05:06:21;;;;;;;0.00;0.00;;;22.80;82.90;;;;;;4209578;28;20052;-50
2021/07/18 05:08:43;;;;;;;0.00;0.00;;;22.80;82.70;;;;;;4208103;28;20051;-51
2021/07/18 05:11:05;;;;;;;0.22;0.22;;;22.80;82.70;;;;;;4208606;28;20048;-48
2021/07/18 05:13:28;;;;;;;0.00;0.00;;;22.80;82.60;;;;;;4208976;28;20105;-49
2021/07/18 05:15:51;;;;;;;3.15;1.58;;;22.80;82.50;;;;;;4208160;28;20058;-49
2021/07/18 05:18:15;;;;;;;0.15;0.15;;;22.90;82.40;;;;;;4209105;28;20052;-50
2021/07/18 05:20:37;;;;;;;0.03;0.03;;;22.90;82.30;;;;;;4207854;28;20048;-52
2021/07/18 05:22:59;;;;;;;0.00;0.00;;;22.90;82.20;;;;;;4209021;28;20052;-50
2021/07/18 05:25:21;;;;;;;0.00;0.00;;;22.90;82.10;;;;;;4192328;28;20624;-52
2021/07/18 05:27:44;;;;;;;0.55;0.55;;;22.90;82.10;;;;;;4197629;27;20051;-52
2021/07/18 05:30:08;;;;;;;0.10;0.10;;;22.90;82.10;;;;;;4192384;28;20758;-53
2021/07/18 05:32:31;;;;;;;0.20;0.20;;;22.90;82.20;;;;;;4209275;28;20055;-49
2021/07/18 05:34:53;;;;;;;0.00;0.00;;;22.90;82.10;;;;;;4192540;28;20036;-49
2021/07/18 05:37:15;;;;;;;0.15;0.15;;;22.90;82.10;;;;;;4192111;28;20048;-52
2021/07/18 05:39:37;;;;;;;0.00;0.00;;;22.90;82.10;;;;;;4203406;28;20051;-47
2021/07/18 05:42:00;;;;;;;0.00;0.00;;;22.90;82.10;;;;;;4208454;28;20130;-48
2021/07/18 05:44:23;;;;;;;0.98;0.90;;;22.90;81.90;;;;;;4207570;28;20044;-51
2021/07/18 05:46:44;;;;;;;0.00;0.00;;;22.90;81.90;;;;;;4208526;28;20062;-52
2021/07/18 05:49:08;;;;;;;0.00;0.00;;;23.00;81.90;;;;;;4208818;28;20056;-49
2021/07/18 05:51:30;;;;;;;0.35;0.35;;;23.00;81.80;;;;;;4208815;28;20086;-49
2021/07/18 05:53:52;;;;;;;0.22;0.22;;;23.00;81.70;;;;;;4208198;28;20048;-49
2021/07/18 05:56:14;;;;;;;0.10;0.10;;;23.00;81.70;;;;;;4208539;28;20126;-47
2021/07/18 05:58:36;;;;;;;0.00;0.00;;;23.00;81.70;;;;;;4208221;28;20056;-49
2021/07/18 06:00:59;;;;;;;0.10;0.10;;;23.00;82.10;;;;;;4209160;28;20047;-51
2021/07/18 06:03:21;;;;;;;0.00;0.00;;;23.00;82.30;;;;;;4205613;28;20140;-53
2021/07/18 06:05:45;;;;;;;1.08;0.30;;;23.00;82.30;;;;;;4204524;28;20429;-51
2021/07/18 06:08:08;;;;;;;0.10;0.10;;;23.00;82.20;;;;;;4207628;27;20490;-53
2021/07/18 06:10:30;;;;;;;0.32;0.32;;;23.00;82.20;;;;;;4206166;27;20044;-53
2021/07/18 06:12:52;;;;;;;0.00;0.00;;;23.00;82.30;;;;;;4191142;28;20078;-53
2021/07/18 06:15:14;;;;;;;0.30;0.30;;;23.00;82.20;;;;;;4190935;28;20067;-54
2021/07/18 06:17:37;;;;;;;0.00;0.00;;;23.00;82.20;;;;;;4174855;28;20068;-52
2021/07/18 06:19:59;;;;;;;0.00;0.00;;;23.00;82.30;;;;;;4174827;28;20523;-52
2021/07/18 06:22:23;;;;;;;0.00;0.00;;;23.00;82.30;;;;;;4184068;28;20513;-51
2021/07/18 06:24:44;;;;;;;0.65;0.65;;;23.00;82.40;;;;;;4185617;28;20043;-51
2021/07/18 06:27:08;;;;;;;0.00;0.00;;;23.00;82.50;;;;;;4190454;28;20530;-51
2021/07/18 06:29:30;;;;;;;0.40;0.40;;;23.00;82.50;;;;;;4191479;28;20056;-51
2021/07/18 06:31:52;;;;;;;0.00;0.00;;;23.00;82.40;;;;;;4189860;28;20566;-54
2021/07/18 06:34:14;;;;;;;0.00;0.00;;;23.00;82.80;;;;;;4190908;28;20544;-53
2021/07/18 06:36:35;;;;;;;0.00;0.00;;;23.00;82.40;;;;;;4191230;28;20113;-52
2021/07/18 06:39:01;;;;;;;0.52;0.52;;;23.00;82.30;;;;;;4191073;28;20055;-51
2021/07/18 06:41:23;;;;;;;0.00;0.00;;;23.00;82.30;;;;;;4190922;28;20052;-49
2021/07/18 06:43:45;;;;;;;0.00;0.00;;;23.10;82.30;;;;;;4187168;28;20056;-53
2021/07/18 06:46:22;;;;;;;0.00;0.00;;;23.10;82.40;;;;;;4190288;28;20152;-51
2021/07/18 06:48:44;;;;;;;0.00;0.00;;;23.10;82.40;;;;;;4191343;28;20055;-51
2021/07/18 06:51:06;;;;;;;0.32;0.32;;;23.10;82.40;;;;;;4191379;28;20059;-51
2021/07/18 06:53:28;;;;;;;0.00;0.00;;;23.20;82.20;;;;;;4190672;28;20054;-52
2021/07/18 06:55:51;;;;;;;0.32;0.32;;;23.20;82.00;;;;;;4189392;28;20368;-48
2021/07/18 06:58:13;;;;;;;0.00;0.00;;;23.30;82.00;;;;;;4190537;28;20048;-52
2021/07/18 07:00:36;;;;;;;0.10;0.10;;;23.30;81.80;;;;;;4199890;28;20644;-50
2021/07/18 07:02:58;;;;;;;0.00;0.00;;;23.40;81.70;;;;;;4191238;28;20049;-52
2021/07/18 07:05:20;;;;;;;0.10;0.10;;;23.50;81.30;;;;;;4207369;28;20051;-51
2021/07/18 07:07:46;;;;;;;0.20;0.20;;;23.50;81.00;;;;;;4205713;28;20071;-52
2021/07/18 07:10:09;;;;;;;0.00;0.00;;;23.60;80.70;;;;;;4207330;28;20055;-53
2021/07/18 07:12:32;;;;;;;0.00;0.00;;;23.70;80.60;;;;;;4207376;28;20052;-50
2021/07/18 07:14:54;;;;;;;0.10;0.10;;;23.70;80.30;;;;;;4205928;28;20409;-48
2021/07/18 07:17:16;;;;;;;0.00;0.00;;;23.80;80.00;;;;;;4207468;28;20130;-51
2021/07/18 07:19:38;;;;;;;0.10;0.10;;;23.90;79.80;;;;;;4207404;28;20138;-51
2021/07/18 07:22:01;;;;;;;0.00;0.00;;;23.90;79.50;;;;;;4207869;28;20913;-54
2021/07/18 07:24:24;;;;;;;0.00;0.00;;;23.90;79.70;;;;;;4207282;27;20048;-53
2021/07/18 07:26:47;;;;;;;0.08;0.08;;;24.00;79.20;;;;;;4206950;28;20570;-53
2021/07/18 07:29:10;;;;;;;0.00;0.00;;;24.00;79.00;;;;;;4205524;28;20101;-51
2021/07/18 07:31:32;;;;;;;0.15;0.15;;;24.00;79.00;;;;;;4207306;28;20047;-52
2021/07/18 07:33:54;;;;;;;0.00;0.00;;;24.10;79.10;;;;;;4207707;28;20056;-50
2021/07/18 07:36:17;;;;;;;5.00;1.25;;;24.10;79.00;;;;;;4207100;28;20047;-49
2021/07/18 07:38:39;;;;;;;0.30;0.30;;;24.10;78.80;;;;;;4206873;28;20517;-51
2021/07/18 07:41:01;;;;;;;0.00;0.00;;;24.10;78.80;;;;;;4200759;28;20760;-52
2021/07/18 07:43:24;;;;;;;0.00;0.00;;;24.10;78.80;;;;;;4210720;28;20063;-53
2021/07/18 07:45:48;;;;;;;0.10;0.10;;;24.10;78.70;;;;;;4210403;28;20056;-49
2021/07/18 07:48:12;;;;;;;1.55;1.15;;;24.10;77.90;;;;;;4210334;28;20048;-52
2021/07/18 07:50:34;;;;;;;0.17;0.17;;;24.10;78.70;;;;;;4210354;28;20126;-51
2021/07/18 07:52:56;;;;;;;0.00;0.00;;;24.10;78.50;;;;;;4208907;28;20069;-52
2021/07/18 07:55:19;;;;;;;0.10;0.10;;;24.10;78.50;;;;;;4210418;28;20131;-51
2021/07/18 07:57:41;;;;;;;0.10;0.10;;;24.10;78.50;;;;;;4210402;28;20048;-52
2021/07/18 08:00:06;;;;;;;0.00;0.00;;;24.10;78.50;;;;;;4210555;28;20039;-50
2021/07/18 08:02:34;;;;;;;0.00;0.00;;;24.20;78.50;;;;;;4210713;28;20385;-53
2021/07/18 08:04:57;;;;;;;0.55;0.55;;;24.20;78.40;;;;;;4210219;28;20054;-51
2021/07/18 08:07:19;;;;;;;0.05;0.05;;;24.20;78.30;;;;;;4237755;27;20417;-50
2021/07/18 08:09:41;;;;;;;0.00;0.00;;;24.20;79.30;;;;;;4210167;28;20063;-51
2021/07/18 08:12:04;;;;;;;0.10;0.10;;;24.20;78.50;;;;;;4210049;28;20076;-52
2021/07/18 08:14:26;;;;;;;0.00;0.00;;;24.20;78.40;;;;;;4210419;28;20047;-51
2021/07/18 08:16:48;;;;;;;0.17;0.17;;;24.20;78.50;;;;;;4209817;28;20109;-50
2021/07/18 08:19:13;;;;;;;0.00;0.00;;;24.20;78.40;;;;;;4209396;28;20052;-52
2021/07/18 08:21:35;;;;;;;0.00;0.00;;;24.20;79.40;;;;;;4202808;28;20457;-54
2021/07/18 08:24:04;;;;;;;0.20;0.20;;;24.30;78.60;;;;;;4210147;28;20125;-54
2021/07/18 08:26:26;;;;;;;1.35;0.28;;;24.20;78.50;;;;;;4208545;28;20173;-54
2021/07/18 08:28:48;;;;;;;0.15;0.15;;;24.30;78.50;;;;;;4193480;28;20044;-49
2021/07/18 08:31:10;;;;;;;0.25;0.25;;;24.30;78.40;;;;;;4207922;28;20044;-50
2021/07/18 08:33:32;;;;;;;0.05;0.05;;;24.30;78.40;;;;;;4209537;28;20048;-52
2021/07/18 08:35:57;;;;;;;0.10;0.10;;;24.30;78.40;;;;;;4210211;28;20147;-53
2021/07/18 08:38:19;;;;;;;0.00;0.00;;;24.30;78.40;;;;;;4209318;28;20504;-52
2021/07/18 08:40:41;;;;;;;0.20;0.20;;;24.30;78.50;;;;;;4209400;28;20055;-50
2021/07/18 08:43:04;;;;;;;0.85;0.60;;;24.30;78.60;;;;;;4205744;27;20059;-48
2021/07/18 08:45:26;;;;;;;0.00;0.00;;;24.30;78.30;;;;;;4209699;27;20052;-49
2021/07/18 08:47:48;;;;;;;0.38;0.38;;;24.30;78.40;;;;;;4209868;28;22853;-52
2021/07/18 08:50:13;;;;;;;0.10;0.10;;;24.40;78.40;;;;;;4202572;28;20129;-51
2021/07/18 08:52:37;;;;;;;0.00;0.00;;;24.40;78.30;;;;;;4209532;27;20043;-51
2021/07/18 08:55:01;;;;;;;0.47;0.47;;;24.40;78.30;;;;;;4209066;28;20144;-51
2021/07/18 08:57:26;;;;;;;0.00;0.00;;;24.40;78.30;;;;;;4209183;28;20050;-53
2021/07/18 08:59:48;;;;;;;0.10;0.10;;;24.40;78.20;;;;;;4192619;28;20056;-52
2021/07/18 09:02:11;;;;;;;0.15;0.15;;;24.40;78.30;;;;;;4191465;28;20051;-50
2021/07/18 09:04:33;;;;;;;0.10;0.10;;;24.40;78.30;;;;;;4192934;28;20580;-50
2021/07/18 09:06:55;;;;;;;0.00;0.00;;;24.50;78.30;;;;;;4208393;28;20044;-53
2021/07/18 09:09:20;;;;;;;0.38;0.38;;;24.50;78.30;;;;;;4209445;28;20052;-51
2021/07/18 09:11:44;;;;;;;0.00;0.00;;;24.50;78.10;;;;;;4208759;28;20059;-55
2021/07/18 09:14:08;;;;;;;0.00;0.00;;;24.50;78.00;;;;;;4191999;28;20070;-53
2021/07/18 09:16:33;;;;;;;0.00;0.00;;;24.60;77.90;;;;;;4192336;28;20059;-52
2021/07/18 09:19:15;;;;;;;0.57;0.57;;;24.50;77.70;;;;;;4192015;28;20131;-51
2021/07/18 09:21:37;;;;;;;0.00;0.00;;;24.60;77.60;;;;;;4192433;27;20135;-50
2021/07/18 09:24:19;;;;;;;0.28;0.28;;;24.60;77.60;;;;;;4192214;27;20465;-52
2021/07/18 09:26:42;;;;;;;0.00;0.00;;;24.70;77.60;;;;;;4208318;28;20056;-53
2021/07/18 09:29:04;;;;;;;3.63;0.75;;;24.70;77.60;;;;;;4209034;28;20071;-53
2021/07/18 09:31:30;;;;;;;0.00;0.00;;;24.70;77.40;;;;;;4208884;28;20052;-51
2021/07/18 09:34:10;;;;;;;1.02;0.85;;;24.70;77.40;;;;;;4209000;28;20052;-53
2021/07/18 09:36:32;;;;;;;0.00;0.00;;;24.70;77.30;;;;;;4208753;28;20054;-51
2021/07/18 09:39:06;;;;;;;2.90;1.25;;;24.70;77.20;;;;;;4197779;28;20044;-51
2021/07/18 09:41:35;;;;;;;0.00;0.00;;;24.80;77.20;;;;;;4182319;28;20056;-48
2021/07/18 09:43:59;;;;;;;0.22;0.22;;;24.80;77.10;;;;;;4209963;28;20067;-51
2021/07/18 09:46:30;;;;;;;0.38;0.25;;;24.80;77.40;;;;;;4208750;28;20048;-52
2021/07/18 09:48:53;;;;;;;0.15;0.15;;;24.80;77.40;;;;;;4184711;28;20051;-51
2021/07/18 09:51:16;;;;;;;0.00;0.00;;;24.80;77.30;;;;;;4208545;28;20139;-50
2021/07/18 09:53:39;;;;;;;0.68;0.57;;;24.80;77.20;;;;;;4192086;28;20056;-50
2021/07/18 09:56:04;;;;;;;0.00;0.00;;;24.80;77.20;;;;;;4191898;28;20040;-54
2021/07/18 09:58:28;;;;;;;0.00;0.00;;;24.80;77.20;;;;;;4175570;28;20123;-54
2021/07/18 10:00:51;;;;;;;0.05;0.05;;;24.80;77.30;;;;;;4179802;28;20123;-53
2021/07/18 10:03:18;;;;;;;0.47;0.47;;;24.80;77.20;;;;;;4191272;28;20070;-54
2021/07/18 10:05:42;;;;;;;0.00;0.00;;;24.80;77.20;;;;;;4191313;28;20501;-52
2021/07/18 10:08:05;;;;;;;0.20;0.20;;;24.80;77.10;;;;;;4191244;28;20458;-53
2021/07/18 10:10:28;;;;;;;0.63;0.63;;;24.90;77.00;;;;;;4191388;28;20590;-53
2021/07/18 10:12:50;;;;;;;0.10;0.10;;;24.90;76.80;;;;;;4190575;28;20051;-55
2021/07/18 10:15:14;;;;;;;0.00;0.00;;;24.90;76.50;;;;;;4191289;28;20189;-52
2021/07/18 10:17:37;;;;;;;0.10;0.10;;;24.90;76.50;;;;;;4191437;28;20052;-51
2021/07/18 10:19:59;;;;;;;0.00;0.00;;;25.00;76.50;;;;;;4190759;28;20155;-53
2021/07/18 10:22:22;;;;;;;0.35;0.35;;;24.90;76.40;;;;;;4190005;28;20498;-51
2021/07/18 10:24:45;;;;;;;0.05;0.05;;;25.00;76.40;;;;;;4186852;28;20052;-51
2021/07/18 10:27:08;;;;;;;0.00;0.00;;;25.00;76.20;;;;;;4188168;28;20133;-53
2021/07/18 10:29:31;;;;;;;0.00;0.00;;;25.00;76.40;;;;;;4190157;28;20132;-52
2021/07/18 10:31:57;;;;;;;0.25;0.20;;;25.00;76.30;;;;;;4187818;28;20044;-53
2021/07/18 10:34:28;;;;;;;0.00;0.00;;;25.00;76.20;;;;;;4190363;28;20060;-54
2021/07/18 10:36:51;;;;;;;0.00;0.00;;;25.00;76.20;;;;;;4190120;28;20063;-55
2021/07/18 10:39:32;;;;;;;0.30;0.30;;;25.00;75.80;;;;;;4190995;28;20056;-53
2021/07/18 10:41:59;;;;;;;0.00;0.00;;;25.10;75.90;;;;;;4203887;28;20510;-53
2021/07/18 10:44:22;;;;;;;0.50;0.50;;;25.10;75.70;;;;;;4205087;28;20140;-54
2021/07/18 10:47:03;;;;;;;6.45;0.70;;;25.10;75.70;;;;;;4205791;28;20131;-54
2021/07/18 10:49:59;;;;;;;0.00;0.00;;;25.10;75.60;;;;;;4202049;28;20047;-55
2021/07/18 10:52:23;;;;;;;0.00;0.00;;;25.10;76.30;;;;;;4123144;28;20062;-51
2021/07/18 10:54:46;;;;;;;0.00;0.00;;;25.10;75.40;;;;;;4138500;28;20404;-55
2021/07/18 10:57:21;;;;;;;0.00;0.00;;;25.20;75.40;;;;;;4167214;27;20043;-55
2021/07/18 10:59:43;;;;;;;0.47;0.47;;;25.20;75.30;;;;;;4206492;28;20056;-49
2021/07/18 11:02:11;;;;;;;0.10;0.10;;;25.20;75.20;;;;;;4204762;28;20091;-52
2021/07/18 11:04:44;;;;;;;0.00;0.00;;;25.20;75.10;;;;;;4188458;28;20056;-51
2021/07/18 11:07:37;;;;;;;0.00;0.00;;;25.30;75.40;;;;;;4190109;28;20394;-54
2021/07/18 11:10:01;;;;;;;0.00;0.00;;;25.30;75.10;;;;;;4192169;28;20073;-51
2021/07/18 11:12:29;;;;;;;0.00;0.00;;;25.30;75.10;;;;;;4196354;28;20044;-54
2021/07/18 11:14:53;;;;;;;0.15;0.15;;;25.30;75.00;;;;;;4210699;28;20513;-51
2021/07/18 11:17:27;;;;;;;0.00;0.00;;;25.30;74.90;;;;;;4200149;28;20453;-53
2021/07/18 11:20:00;;;;;;;0.40;0.40;;;25.30;74.90;;;;;;4193995;28;20049;-50
2021/07/18 11:23:01;;;;;;;0.63;0.43;;;25.30;75.30;;;;;;4197112;28;20055;-52
2021/07/18 11:25:39;;;;;;;0.00;0.00;;;25.40;74.70;;;;;;4210010;28;20101;-55
2021/07/18 11:28:03;;;;;;;0.20;0.20;;;25.40;74.60;;;;;;4208238;28;20052;-54
2021/07/18 11:30:45;;;;;;;1.00;0.82;;;25.40;74.50;;;;;;4210738;28;20044;-52
2021/07/18 11:33:28;;;;;;;0.15;0.15;;;25.40;74.50;;;;;;4210979;28;20109;-50
2021/07/18 11:35:52;;;;;;;0.00;0.00;;;25.40;74.40;;;;;;4209432;28;20051;-53
2021/07/18 11:38:17;;;;;;;0.20;0.20;;;25.40;74.40;;;;;;4210667;28;20056;-52
2021/07/18 11:40:40;;;;;;;0.28;0.28;;;25.40;74.30;;;;;;4208974;28;20601;-55
2021/07/18 11:43:02;;;;;;;0.30;0.30;;;25.50;74.30;;;;;;4206164;28;20106;-54
2021/07/18 11:45:32;;;;;;;0.30;0.30;;;25.50;74.20;;;;;;4210579;28;20044;-51
2021/07/18 11:47:55;;;;;;;0.05;0.05;;;25.50;74.20;;;;;;4206542;28;20062;-53
2021/07/18 11:50:17;;;;;;;0.00;0.00;;;25.50;74.10;;;;;;4210790;28;20059;-53
2021/07/18 11:52:40;;;;;;;0.00;0.00;;;25.50;74.10;;;;;;4207663;28;20490;-52
2021/07/18 11:55:04;;;;;;;0.20;0.20;;;25.50;73.90;;;;;;4207659;28;20048;-54
2021/07/18 11:57:26;;;;;;;0.00;0.00;;;25.50;73.90;;;;;;4209546;28;20058;-55
2021/07/18 11:59:50;;;;;;;0.00;0.00;;;25.50;73.90;;;;;;4207827;28;20051;-52
2021/07/18 12:02:14;;;;;;;0.28;0.28;;;25.60;73.80;;;;;;4187315;28;20056;-51
2021/07/18 12:04:37;;;;;;;0.00;0.00;;;25.60;74.70;;;;;;4192959;28;20048;-55
2021/07/18 12:07:00;;;;;;;0.10;0.10;;;25.60;73.70;;;;;;4177905;28;20068;-54
2021/07/18 12:09:24;;;;;;;0.00;0.00;;;25.50;73.60;;;;;;4219682;27;20409;-54
2021/07/18 12:11:58;;;;;;;1.27;0.45;;;25.60;73.60;;;;;;4211620;27;20104;-48
2021/07/18 12:14:22;;;;;;;0.00;0.00;;;25.60;73.60;;;;;;4209678;27;20083;-50
2021/07/18 12:16:45;;;;;;;0.00;0.00;;;25.60;73.70;;;;;;4210120;28;20048;-53
2021/07/18 12:19:08;;;;;;;0.35;0.35;;;25.60;73.60;;;;;;4191731;28;20048;-49
2021/07/18 12:21:33;;;;;;;1.55;0.52;;;25.60;73.50;;;;;;4194066;28;20045;-50
2021/07/18 12:24:17;;;;;;;0.00;0.00;;;25.60;73.40;;;;;;4205315;28;20048;-52
2021/07/18 12:26:42;;;;;;;0.25;0.17;;;25.60;73.30;;;;;;4206739;27;20130;-53
2021/07/18 12:29:07;;;;;;;0.40;0.40;;;25.60;73.10;;;;;;4207770;28;20055;-53
2021/07/18 12:31:30;;;;;;;0.20;0.20;;;25.60;73.10;;;;;;4209062;28;20072;-50